Airport View

Enter AWOS ICAO identifier for current METAR.

ex. KFNL

KGRB 031553Z 04003KT 10SM CLR 30/22 A3007 RMK AO2 SLP179 T03000217

3 Jul 2020 16:47

Phone: 920-494-7140

Other Area AWOS: KATW - KOCQ - KEZS - KCLI

TAF KGRB 031132Z 0312/0412 01003KT P6SM SCT250 FM031300 05005KT P6SM SKC FM031700 03006KT P6SM SCT040 FM032300 05003KT P6SM SKC FM040700 04002KT 6SM BR SCT110